Time;durP1;ratioP1;P1;durP2;ratioP2;P2;SDS_P1;SDS_P2;PMS_P1;PMS_P2;Temp;Humidity;BMP_temperature;BMP_pressure;BME280_temperature;BME280_humidity;BME280_pressure;Samples;Min_cycle;Max_cycle;Signal;HPM_P1;HPM_P2
2023/09/03 00:00:40;;;;;;;8.48;4.75;;;19.90;99.90;;;;;;4975660;28;20289;-68
2023/09/03 00:03:06;;;;;;;6.65;4.32;;;19.60;99.90;;;;;;4966700;28;20077;-68
2023/09/03 00:05:32;;;;;;;11.10;4.57;;;19.60;99.90;;;;;;4964919;28;20403;-68
2023/09/03 00:07:57;;;;;;;7.40;4.55;;;19.50;99.90;;;;;;4979235;28;20066;-69
2023/09/03 00:10:23;;;;;;;12.50;5.10;;;19.40;99.90;;;;;;4964108;28;20058;-69
2023/09/03 00:12:49;;;;;;;7.30;4.45;;;19.40;99.90;;;;;;4973808;28;20030;-68
2023/09/03 00:15:15;;;;;;;12.25;5.65;;;19.40;99.90;;;;;;4969004;28;20038;-68
2023/09/03 00:17:43;;;;;;;13.98;4.47;;;19.70;99.90;;;;;;4966652;28;20131;-67
2023/09/03 00:20:10;;;;;;;8.65;4.53;;;19.80;99.90;;;;;;4963213;28;20043;-67
2023/09/03 00:22:35;;;;;;;12.65;4.35;;;19.80;99.90;;;;;;4962525;28;20039;-69
2023/09/03 00:25:01;;;;;;;12.20;4.80;;;19.60;99.90;;;;;;4969973;28;20049;-68
2023/09/03 00:27:27;;;;;;;9.83;4.43;;;19.60;99.90;;;;;;4965554;28;20043;-68
2023/09/03 00:29:53;;;;;;;9.57;4.83;;;19.40;99.90;;;;;;4975930;28;20022;-67
2023/09/03 00:32:19;;;;;;;;;;;19.30;99.90;;;;;;4970922;28;20085;-68
2023/09/03 00:34:45;;;;;;;13.43;4.97;;;19.30;99.90;;;;;;4967882;28;19914;-68
2023/09/03 00:37:12;;;;;;;7.85;4.35;;;19.20;99.90;;;;;;4963754;28;20061;-68
2023/09/03 00:39:37;;;;;;;;;;;19.20;99.90;;;;;;4974931;28;20077;-69
2023/09/03 00:42:03;;;;;;;8.02;5.15;;;19.20;99.90;;;;;;4975397;28;19913;-68
2023/09/03 00:44:29;;;;;;;9.10;4.97;;;19.20;99.90;;;;;;4969906;28;20049;-68
2023/09/03 00:46:54;;;;;;;6.40;4.97;;;19.10;99.90;;;;;;4968793;28;20131;-69
2023/09/03 00:49:23;;;;;;;9.38;4.50;;;19.20;99.90;;;;;;4968021;28;20027;-68
2023/09/03 00:51:52;;;;;;;6.80;5.00;;;19.10;99.90;;;;;;4968260;28;20042;-68
2023/09/03 00:54:21;;;;;;;9.80;5.13;;;19.00;99.90;;;;;;4961665;28;20041;-68
2023/09/03 00:56:49;;;;;;;13.60;5.63;;;19.00;99.90;;;;;;4968824;28;20410;-69
2023/09/03 00:59:16;;;;;;;8.82;4.53;;;19.00;99.90;;;;;;4973968;28;20082;-68
2023/09/03 01:01:42;;;;;;;6.85;4.65;;;18.90;99.90;;;;;;4968080;28;20035;-69
2023/09/03 01:04:07;;;;;;;8.68;5.07;;;18.90;99.90;;;;;;4969751;28;20392;-68
2023/09/03 01:06:33;;;;;;;14.37;5.43;;;19.00;99.90;;;;;;4964531;28;20926;-69
2023/09/03 01:08:58;;;;;;;8.03;5.07;;;19.10;99.90;;;;;;4969717;28;20034;-68
2023/09/03 01:11:38;;;;;;;8.63;4.90;;;18.90;99.90;;;;;;4967768;28;20037;-67
2023/09/03 01:14:27;;;;;;;13.73;4.93;;;18.90;99.90;;;;;;4964410;28;20029;-69
2023/09/03 01:17:10;;;;;;;9.65;5.05;;;18.90;99.90;;;;;;4960530;28;20073;-69
2023/09/03 01:20:15;;;;;;;10.75;4.80;;;18.90;99.90;;;;;;4971893;28;20121;-68
2023/09/03 01:22:59;;;;;;;6.25;4.45;;;18.80;99.90;;;;;;4964854;28;20038;-68
2023/09/03 01:25:43;;;;;;;12.00;4.70;;;18.70;99.90;;;;;;4968525;28;20383;-67
2023/09/03 01:28:15;;;;;;;9.45;5.07;;;18.80;99.90;;;;;;4962283;28;20042;-67
2023/09/03 01:30:41;;;;;;;8.93;4.85;;;18.70;99.90;;;;;;4969604;28;20034;-67
2023/09/03 01:33:08;;;;;;;12.50;4.43;;;18.80;99.90;;;;;;4968352;28;20066;-66
2023/09/03 01:35:36;;;;;;;12.77;4.75;;;18.90;99.90;;;;;;4969741;28;20033;-67
2023/09/03 01:38:01;;;;;;;7.82;4.68;;;18.90;99.90;;;;;;4969566;28;20031;-67
2023/09/03 01:40:27;;;;;;;12.30;4.77;;;18.80;99.90;;;;;;4973288;28;20030;-66
2023/09/03 01:42:53;;;;;;;8.60;4.77;;;18.90;99.90;;;;;;4974616;28;20273;-68
2023/09/03 01:45:18;;;;;;;8.57;4.77;;;18.80;99.90;;;;;;4968585;28;20514;-69
2023/09/03 01:48:25;;;;;;;7.33;4.57;;;19.10;99.90;;;;;;4968520;28;20090;-69
2023/09/03 01:51:09;;;;;;;6.60;4.65;;;19.10;99.90;;;;;;4973393;28;20027;-68
2023/09/03 01:53:51;;;;;;;8.95;4.95;;;19.00;99.90;;;;;;4963991;28;20384;-69
2023/09/03 01:56:20;;;;;;;8.95;4.55;;;18.80;99.90;;;;;;4965786;28;20081;-68
2023/09/03 01:58:48;;;;;;;7.82;4.57;;;18.80;99.90;;;;;;4970638;28;20557;-68
2023/09/03 02:01:15;;;;;;;8.63;5.40;;;18.70;99.90;;;;;;4965042;28;20434;-67
2023/09/03 02:03:45;;;;;;;6.63;4.13;;;18.80;99.90;;;;;;4969150;28;20036;-68
2023/09/03 02:06:11;;;;;;;7.78;4.53;;;18.80;99.90;;;;;;4971461;28;20084;-67
2023/09/03 02:08:37;;;;;;;9.23;4.57;;;18.80;99.90;;;;;;4968284;28;20032;-66
2023/09/03 02:11:02;;;;;;;9.87;4.87;;;18.60;99.90;;;;;;4968888;28;20023;-67
2023/09/03 02:13:28;;;;;;;9.67;5.00;;;18.70;99.90;;;;;;4974346;28;20027;-67
2023/09/03 02:15:54;;;;;;;11.70;5.40;;;18.80;99.90;;;;;;4971800;28;20638;-67
2023/09/03 02:18:19;;;;;;;7.13;4.17;;;18.80;99.90;;;;;;4972646;28;20036;-68
2023/09/03 02:20:45;;;;;;;10.10;4.33;;;18.90;99.90;;;;;;4973834;28;20501;-67
2023/09/03 02:23:10;;;;;;;5.13;3.73;;;18.90;99.90;;;;;;4965387;28;20082;-68
2023/09/03 02:25:36;;;;;;;9.33;4.50;;;18.80;99.90;;;;;;4968082;28;20404;-67
2023/09/03 02:28:01;;;;;;;7.80;4.53;;;18.80;99.90;;;;;;4973972;28;20037;-67
2023/09/03 02:30:27;;;;;;;11.70;4.90;;;18.70;99.90;;;;;;4966366;28;20483;-68
2023/09/03 02:32:53;;;;;;;9.10;5.17;;;18.60;99.90;;;;;;4971852;28;20125;-67
2023/09/03 02:35:18;;;;;;;12.47;5.47;;;18.60;99.90;;;;;;4973646;28;20031;-68
2023/09/03 02:37:44;;;;;;;10.10;4.90;;;18.50;99.90;;;;;;4976113;28;20446;-67
2023/09/03 02:40:09;;;;;;;10.60;4.87;;;18.50;99.90;;;;;;4968353;28;20022;-66
2023/09/03 02:42:35;;;;;;;6.15;4.53;;;18.60;99.90;;;;;;4972161;28;20825;-68
2023/09/03 02:45:01;;;;;;;12.63;5.20;;;18.70;99.90;;;;;;4971013;28;20022;-67
2023/09/03 02:47:27;;;;;;;13.67;4.97;;;18.50;99.90;;;;;;4976520;28;20117;-67
2023/09/03 02:49:53;;;;;;;9.23;4.70;;;18.30;99.90;;;;;;4971733;28;20033;-67
2023/09/03 02:52:18;;;;;;;9.90;6.33;;;18.30;99.90;;;;;;4968007;28;20035;-68
2023/09/03 02:54:44;;;;;;;7.60;5.27;;;18.30;99.90;;;;;;4966330;28;20415;-67
2023/09/03 02:57:10;;;;;;;14.13;5.70;;;18.30;99.90;;;;;;4971619;28;20023;-67
2023/09/03 02:59:35;;;;;;;11.30;5.45;;;18.10;99.90;;;;;;4972190;28;20391;-67
2023/09/03 03:02:01;;;;;;;7.00;5.00;;;18.10;99.90;;;;;;4971343;28;20489;-70
2023/09/03 03:04:26;;;;;;;13.93;5.20;;;18.00;99.90;;;;;;4973083;28;20038;-68
2023/09/03 03:06:52;;;;;;;10.90;5.60;;;18.10;99.90;;;;;;4967433;28;20038;-69
2023/09/03 03:09:17;;;;;;;16.27;5.33;;;18.10;99.90;;;;;;4965697;28;20020;-69
2023/09/03 03:11:46;;;;;;;12.23;5.80;;;18.10;99.90;;;;;;4977388;28;20050;-68
2023/09/03 03:14:12;;;;;;;6.72;4.90;;;17.90;99.90;;;;;;4968907;28;20487;-67
2023/09/03 03:16:38;;;;;;;14.63;5.03;;;18.00;99.90;;;;;;4976675;28;20461;-68
2023/09/03 03:19:04;;;;;;;11.03;6.30;;;18.00;99.90;;;;;;4968717;28;20166;-67
2023/09/03 03:21:29;;;;;;;9.00;4.53;;;18.10;99.90;;;;;;4975151;28;20053;-67
2023/09/03 03:23:55;;;;;;;12.63;5.17;;;18.20;99.90;;;;;;4976274;28;20027;-69
2023/09/03 03:26:20;;;;;;;12.03;5.73;;;18.10;99.90;;;;;;4965616;28;20380;-69
2023/09/03 03:28:46;;;;;;;10.20;5.87;;;18.10;99.90;;;;;;4969457;28;20030;-70
2023/09/03 03:31:18;;;;;;;12.30;5.57;;;18.00;99.90;;;;;;4977320;28;20031;-67
2023/09/03 03:33:45;;;;;;;15.05;5.13;;;18.10;99.90;;;;;;4968598;28;20059;-67
2023/09/03 03:36:13;;;;;;;13.20;5.00;;;18.10;99.90;;;;;;4960893;28;20027;-67
2023/09/03 03:38:39;;;;;;;7.40;4.97;;;18.10;99.90;;;;;;4976366;28;20462;-66
2023/09/03 03:41:15;;;;;;;7.70;5.80;;;17.90;99.90;;;;;;4964657;28;20035;-69
2023/09/03 03:43:42;;;;;;;15.98;5.82;;;17.90;99.90;;;;;;4964115;28;20023;-68
2023/09/03 03:46:09;;;;;;;10.32;5.75;;;17.80;99.90;;;;;;4972729;28;20037;-67
2023/09/03 03:48:35;;;;;;;8.35;5.10;;;17.80;99.90;;;;;;4977255;28;20391;-68
2023/09/03 03:51:01;;;;;;;15.70;5.35;;;17.70;99.90;;;;;;4966545;28;20030;-67
2023/09/03 03:53:27;;;;;;;10.82;5.85;;;17.80;99.90;;;;;;4974725;28;20034;-67
2023/09/03 03:56:06;;;;;;;10.77;5.80;;;17.90;99.90;;;;;;4968381;28;20483;-68
2023/09/03 03:58:37;;;;;;;10.10;5.70;;;17.90;99.90;;;;;;4967160;28;20041;-68
2023/09/03 04:01:18;;;;;;;10.45;5.82;;;17.60;99.90;;;;;;4961951;28;20058;-67
2023/09/03 04:03:45;;;;;;;6.90;5.20;;;17.60;99.90;;;;;;4970728;28;20114;-68
2023/09/03 04:06:11;;;;;;;10.98;5.57;;;17.70;99.90;;;;;;4964329;28;20458;-68
2023/09/03 04:08:38;;;;;;;10.93;5.77;;;17.60;99.90;;;;;;4969675;28;20031;-68
2023/09/03 04:11:11;;;;;;;8.05;5.80;;;17.50;99.90;;;;;;4973532;28;20110;-69
2023/09/03 04:13:38;;;;;;;7.15;5.35;;;17.80;99.90;;;;;;4973252;28;20071;-68
2023/09/03 04:16:08;;;;;;;;;;;17.70;99.90;;;;;;4967288;28;20792;-68
2023/09/03 04:18:34;;;;;;;8.20;5.32;;;17.80;99.90;;;;;;4970160;28;19917;-67
2023/09/03 04:21:00;;;;;;;9.65;5.13;;;17.80;99.90;;;;;;4961791;28;20584;-68
2023/09/03 04:23:25;;;;;;;11.93;5.90;;;17.70;99.90;;;;;;4970731;28;20042;-68
2023/09/03 04:25:52;;;;;;;8.73;5.60;;;17.80;99.90;;;;;;4971003;28;20027;-68
2023/09/03 04:28:18;;;;;;;10.82;6.30;;;17.80;99.90;;;;;;4973513;28;20298;-68
2023/09/03 04:30:44;;;;;;;12.20;5.82;;;17.70;99.90;;;;;;4968627;28;20495;-68
2023/09/03 04:33:09;;;;;;;8.80;5.80;;;17.70;99.90;;;;;;4967662;28;20023;-68
2023/09/03 04:35:36;;;;;;;6.47;5.25;;;17.50;99.90;;;;;;4974336;28;20019;-69
2023/09/03 04:38:02;;;;;;;;;;;17.40;99.90;;;;;;4974325;28;20058;-69
2023/09/03 04:40:31;;;;;;;9.45;5.90;;;17.40;99.90;;;;;;4972476;28;20325;-68
2023/09/03 04:42:56;;;;;;;11.23;5.60;;;17.30;99.90;;;;;;4973597;28;20030;-68
2023/09/03 04:45:22;;;;;;;9.07;5.03;;;17.40;99.90;;;;;;4971266;28;20035;-68
2023/09/03 04:47:47;;;;;;;7.13;5.37;;;17.30;99.90;;;;;;4961277;28;20030;-68
2023/09/03 04:50:13;;;;;;;9.03;5.30;;;17.50;99.90;;;;;;4967365;28;20110;-68
2023/09/03 04:52:48;;;;;;;16.83;5.23;;;17.50;99.90;;;;;;4972766;28;20039;-68
2023/09/03 04:55:14;;;;;;;9.48;5.82;;;17.60;99.90;;;;;;4969072;28;20107;-67
2023/09/03 04:57:39;;;;;;;7.45;4.93;;;17.60;99.90;;;;;;4972208;28;20502;-68
2023/09/03 05:00:06;;;;;;;9.47;4.97;;;17.50;99.90;;;;;;4974619;28;20042;-67
2023/09/03 05:02:32;;;;;;;6.22;5.18;;;17.40;99.90;;;;;;4970847;28;20074;-68
2023/09/03 05:04:58;;;;;;;9.00;5.83;;;17.30;99.90;;;;;;4967136;28;20050;-68
2023/09/03 05:07:24;;;;;;;8.10;5.20;;;17.00;99.90;;;;;;4967882;28;20035;-68
2023/09/03 05:09:52;;;;;;;10.33;5.13;;;17.10;99.90;;;;;;4976591;28;20030;-68
2023/09/03 05:12:18;;;;;;;11.75;5.95;;;17.00;99.90;;;;;;4968267;28;20034;-69
2023/09/03 05:14:43;;;;;;;15.37;5.90;;;17.00;99.90;;;;;;4976942;28;20374;-68
2023/09/03 05:17:09;;;;;;;15.03;6.60;;;16.90;99.90;;;;;;4974788;28;20054;-69
2023/09/03 05:19:34;;;;;;;10.07;6.00;;;16.90;99.90;;;;;;4980280;28;20513;-69
2023/09/03 05:22:00;;;;;;;10.67;6.00;;;17.00;99.90;;;;;;4970137;28;20022;-69
2023/09/03 05:24:26;;;;;;;10.27;6.07;;;17.10;99.90;;;;;;4963715;28;20031;-69
2023/09/03 05:26:51;;;;;;;8.93;5.73;;;17.30;99.90;;;;;;4966641;28;20034;-70
2023/09/03 05:29:17;;;;;;;9.93;5.17;;;17.10;99.90;;;;;;4975044;28;20576;-67
2023/09/03 05:31:43;;;;;;;7.35;5.53;;;17.00;99.90;;;;;;4966459;28;20033;-66
2023/09/03 05:34:08;;;;;;;9.53;5.73;;;17.10;99.90;;;;;;4968340;28;20110;-69
2023/09/03 05:36:35;;;;;;;7.47;6.30;;;17.20;99.90;;;;;;4968233;28;20082;-69
2023/09/03 05:39:01;;;;;;;;;;;17.10;99.90;;;;;;4967543;28;20493;-70
2023/09/03 05:41:26;;;;;;;7.63;5.18;;;17.30;99.90;;;;;;4967101;28;19918;-67
2023/09/03 05:43:53;;;;;;;12.30;6.33;;;17.20;99.90;;;;;;4960798;28;20515;-67
2023/09/03 05:46:19;;;;;;;10.68;6.47;;;17.40;99.90;;;;;;4964452;28;20066;-69
2023/09/03 05:48:51;;;;;;;10.70;6.00;;;17.60;99.90;;;;;;4971924;28;20114;-68
2023/09/03 05:51:17;;;;;;;10.95;5.82;;;17.30;99.90;;;;;;4970166;28;20049;-67
2023/09/03 05:53:42;;;;;;;11.53;6.10;;;17.50;99.90;;;;;;4972226;28;20110;-67
2023/09/03 05:56:12;;;;;;;9.03;5.40;;;17.50;99.90;;;;;;4965390;28;20060;-69
2023/09/03 05:58:38;;;;;;;12.27;5.45;;;17.60;99.90;;;;;;4969779;28;20049;-67
2023/09/03 06:01:10;;;;;;;8.95;5.32;;;17.40;99.90;;;;;;4969249;28;20023;-68
2023/09/03 06:03:37;;;;;;;11.23;6.03;;;17.40;99.90;;;;;;4970891;28;20082;-68
2023/09/03 06:06:04;;;;;;;12.02;5.55;;;17.40;99.90;;;;;;4964640;28;20027;-69
2023/09/03 06:08:30;;;;;;;13.18;5.55;;;17.50;99.90;;;;;;4970364;28;20035;-70
2023/09/03 06:10:56;;;;;;;;;;;17.40;99.90;;;;;;4970090;28;20023;-68
2023/09/03 06:13:23;;;;;;;9.82;5.72;;;17.50;99.90;;;;;;4968297;28;19913;-67
2023/09/03 06:15:49;;;;;;;10.02;5.25;;;17.60;99.90;;;;;;4963640;28;20027;-68
2023/09/03 06:18:15;;;;;;;10.77;5.22;;;17.70;99.90;;;;;;4966568;28;20106;-69
2023/09/03 06:20:41;;;;;;;10.20;5.18;;;17.80;99.90;;;;;;4978207;28;20031;-69
2023/09/03 06:23:06;;;;;;;7.53;5.53;;;18.20;99.90;;;;;;4969699;28;20023;-69
2023/09/03 06:25:32;;;;;;;13.10;5.73;;;18.40;99.90;;;;;;4965885;28;20498;-68
2023/09/03 06:27:57;;;;;;;10.70;5.47;;;18.60;99.90;;;;;;4969174;28;20042;-69
2023/09/03 06:30:23;;;;;;;7.73;5.00;;;18.70;99.90;;;;;;4966658;28;20039;-70
2023/09/03 06:32:49;;;;;;;13.10;5.83;;;18.80;99.90;;;;;;4970350;28;20043;-70
2023/09/03 06:35:14;;;;;;;6.60;4.93;;;18.80;99.90;;;;;;4964617;28;20498;-71
2023/09/03 06:37:40;;;;;;;7.50;4.80;;;19.00;99.90;;;;;;4971267;28;20034;-70
2023/09/03 06:40:07;;;;;;;7.17;5.40;;;19.10;99.90;;;;;;4952549;28;20034;-70
2023/09/03 06:42:32;;;;;;;8.68;5.00;;;19.30;99.90;;;;;;4961730;28;20027;-67
2023/09/03 06:44:58;;;;;;;9.75;5.20;;;19.60;99.90;;;;;;4964198;28;20038;-72
2023/09/03 06:47:24;;;;;;;14.47;5.93;;;19.60;99.90;;;;;;4961258;28;20035;-68
2023/09/03 06:49:51;;;;;;;8.30;5.45;;;19.50;99.90;;;;;;4964956;28;20121;-69
2023/09/03 06:52:17;;;;;;;8.93;5.57;;;19.30;99.90;;;;;;4959018;28;20428;-73
2023/09/03 06:54:42;;;;;;;11.90;6.18;;;19.40;99.90;;;;;;4956681;28;20032;-70
2023/09/03 06:57:08;;;;;;;7.40;5.43;;;19.40;99.90;;;;;;4958297;28;20041;-72
2023/09/03 06:59:33;;;;;;;13.73;5.67;;;19.30;99.90;;;;;;4965463;28;20027;-71
2023/09/03 07:02:00;;;;;;;8.00;5.10;;;19.60;99.90;;;;;;4967102;28;20074;-72
2023/09/03 07:04:25;;;;;;;;;;;19.60;99.90;;;;;;4967192;28;20526;-70
2023/09/03 07:06:51;;;;;;;16.13;6.63;;;19.90;99.90;;;;;;4962439;28;19922;-66
2023/09/03 07:09:17;;;;;;;8.03;5.60;;;20.10;99.90;;;;;;4962954;28;20327;-68
2023/09/03 07:11:43;;;;;;;10.45;4.88;;;20.30;99.90;;;;;;4964319;28;20035;-73
2023/09/03 07:14:08;;;;;;;6.20;4.40;;;20.30;99.90;;;;;;4957385;28;20444;-67
2023/09/03 07:16:35;;;;;;;7.50;4.53;;;20.30;99.90;;;;;;4971948;28;20039;-73
2023/09/03 07:19:00;;;;;;;;;;;20.40;99.90;;;;;;4971142;28;20475;-66
2023/09/03 07:21:26;;;;;;;9.82;4.75;;;20.50;99.90;;;;;;4965414;28;19917;-66
2023/09/03 07:23:53;;;;;;;6.97;4.73;;;20.70;99.90;;;;;;4967064;28;20053;-65
2023/09/03 07:26:19;;;;;;;11.30;4.80;;;20.70;99.90;;;;;;4963443;28;20046;-66
2023/09/03 07:28:44;;;;;;;10.13;4.77;;;20.70;99.90;;;;;;4964824;28;20494;-66
2023/09/03 07:31:10;;;;;;;8.83;4.77;;;20.80;99.90;;;;;;4969508;28;20042;-73
2023/09/03 07:33:38;;;;;;;4.97;3.90;;;21.00;99.90;;;;;;4974489;28;20035;-67
2023/09/03 07:36:10;;;;;;;7.13;5.18;;;21.00;99.90;;;;;;4964037;28;20031;-73
2023/09/03 07:38:37;;;;;;;7.32;4.07;;;21.20;99.90;;;;;;4961501;28;20114;-71
2023/09/03 07:41:03;;;;;;;8.60;4.30;;;21.30;99.90;;;;;;4961046;28;20038;-65
2023/09/03 07:43:29;;;;;;;11.80;4.43;;;21.40;99.90;;;;;;4960712;28;20035;-67
2023/09/03 07:45:55;;;;;;;11.38;5.03;;;21.40;99.90;;;;;;4963895;28;21051;-74
2023/09/03 07:48:21;;;;;;;10.68;4.60;;;21.60;99.90;;;;;;4964363;28;20126;-78
2023/09/03 07:50:46;;;;;;;7.40;4.03;;;21.60;99.90;;;;;;4959833;28;20053;-71
2023/09/03 07:53:12;;;;;;;11.97;4.50;;;21.60;99.90;;;;;;4964027;28;20039;-69
2023/09/03 07:55:38;;;;;;;7.57;4.57;;;21.60;99.90;;;;;;4960200;28;20027;-65
2023/09/03 07:58:04;;;;;;;8.35;4.43;;;21.80;99.90;;;;;;4966553;28;20038;-66
2023/09/03 08:00:30;;;;;;;;;;;21.90;99.90;;;;;;4966983;28;20031;-66
2023/09/03 08:02:56;;;;;;;8.35;4.15;;;22.00;99.90;;;;;;4964329;28;19916;-67
2023/09/03 08:05:22;;;;;;;8.13;4.28;;;22.30;99.90;;;;;;4962423;28;20030;-67
2023/09/03 08:07:48;;;;;;;7.80;4.60;;;22.30;99.90;;;;;;4964939;28;20057;-67
2023/09/03 08:10:14;;;;;;;6.73;4.47;;;22.30;99.90;;;;;;4960524;28;20023;-67
2023/09/03 08:12:39;;;;;;;5.45;4.07;;;22.30;99.90;;;;;;4960090;28;20038;-67
2023/09/03 08:15:07;;;;;;;9.27;4.20;;;22.40;99.90;;;;;;4960727;28;20030;-67
2023/09/03 08:17:32;;;;;;;10.18;4.75;;;22.50;99.50;;;;;;4968181;28;20662;-67
2023/09/03 08:19:58;;;;;;;9.05;4.53;;;22.50;99.90;;;;;;4966495;28;20031;-67
2023/09/03 08:22:24;;;;;;;7.20;4.80;;;22.60;99.90;;;;;;4958136;28;20155;-67
2023/09/03 08:24:50;;;;;;;7.05;4.22;;;22.80;99.20;;;;;;4967837;28;20061;-67
2023/09/03 08:27:15;;;;;;;12.82;5.28;;;22.70;99.90;;;;;;4960469;28;20530;-67
2023/09/03 08:29:41;;;;;;;8.03;5.17;;;22.70;99.90;;;;;;4959878;28;20039;-67
2023/09/03 08:32:07;;;;;;;11.95;4.50;;;22.70;99.80;;;;;;4960332;28;20034;-66
2023/09/03 08:34:33;;;;;;;4.57;3.50;;;22.70;99.10;;;;;;4957633;28;20039;-67
2023/09/03 08:36:58;;;;;;;6.90;4.20;;;23.00;99.80;;;;;;4958155;28;20039;-67
2023/09/03 08:39:24;;;;;;;9.93;4.63;;;23.30;97.60;;;;;;4961352;28;20369;-67
2023/09/03 08:41:50;;;;;;;7.03;3.93;;;23.50;96.50;;;;;;4958929;28;20035;-67
2023/09/03 08:44:42;;;;;;;7.32;4.60;;;24.80;93.80;;;;;;4956011;28;20027;-67
2023/09/03 08:47:11;;;;;;;8.63;4.30;;;24.80;94.70;;;;;;4956574;28;20494;-67
2023/09/03 08:49:38;;;;;;;5.53;4.25;;;27.20;88.70;;;;;;4962532;28;20031;-67
2023/09/03 08:52:06;;;;;;;6.55;3.67;;;29.00;82.60;;;;;;4960654;28;20038;-68
2023/09/03 08:54:32;;;;;;;5.57;4.25;;;28.10;81.90;;;;;;4960695;28;20039;-68
2023/09/03 08:56:59;;;;;;;4.97;3.65;;;27.00;87.40;;;;;;4962245;28;20120;-68
2023/09/03 08:59:24;;;;;;;12.23;4.45;;;26.20;85.80;;;;;;4961235;28;20070;-68
2023/09/03 09:01:53;;;;;;;5.70;3.65;;;25.60;91.30;;;;;;4961694;28;20565;-68
2023/09/03 09:04:20;;;;;;;7.78;3.90;;;25.40;91.40;;;;;;4959991;28;20113;-68
2023/09/03 09:06:46;;;;;;;6.50;3.83;;;26.40;89.90;;;;;;4958343;28;20062;-69
2023/09/03 09:09:14;;;;;;;6.00;3.72;;;27.20;87.90;;;;;;4965627;28;20027;-68
2023/09/03 09:11:50;;;;;;;8.73;3.72;;;27.80;85.00;;;;;;4961483;28;20039;-69
2023/09/03 09:14:43;;;;;;;5.95;3.67;;;29.30;83.20;;;;;;4955691;28;20035;-68
2023/09/03 09:17:13;;;;;;;4.05;3.15;;;30.00;79.60;;;;;;4960550;28;20459;-69
2023/09/03 09:19:38;;;;;;;5.40;3.40;;;29.30;76.40;;;;;;4958849;28;20031;-69
2023/09/03 09:22:04;;;;;;;11.77;3.38;;;28.00;82.60;;;;;;4954237;28;20020;-68
2023/09/03 09:24:30;;;;;;;4.40;3.03;;;29.70;78.80;;;;;;4957785;28;20039;-69
2023/09/03 09:27:17;;;;;;;5.95;3.58;;;29.40;80.20;;;;;;4954749;28;20038;-68
2023/09/03 09:29:44;;;;;;;5.97;3.35;;;27.90;82.10;;;;;;4963142;28;20050;-68
2023/09/03 09:32:17;;;;;;;6.28;3.88;;;30.00;80.50;;;;;;4959527;28;20042;-67
2023/09/03 09:34:43;;;;;;;6.63;3.47;;;31.80;75.30;;;;;;4960485;28;20398;-68
2023/09/03 09:37:08;;;;;;;7.53;3.83;;;32.20;71.00;;;;;;4963910;28;20054;-68
2023/09/03 09:39:48;;;;;;;6.85;3.88;;;32.40;69.20;;;;;;4963600;28;20414;-67
2023/09/03 09:42:18;;;;;;;7.28;3.30;;;32.50;70.20;;;;;;4962898;28;20076;-68
2023/09/03 09:44:53;;;;;;;4.78;3.70;;;33.20;66.90;;;;;;4955685;28;20038;-69
2023/09/03 09:47:20;;;;;;;12.95;3.58;;;32.90;68.10;;;;;;4953808;28;20051;-68
2023/09/03 09:49:47;;;;;;;5.13;3.40;;;33.30;68.70;;;;;;4955509;28;20019;-69
2023/09/03 09:52:14;;;;;;;7.72;3.70;;;33.50;67.20;;;;;;4956926;28;20447;-68
2023/09/03 09:54:41;;;;;;;4.93;3.20;;;33.80;66.50;;;;;;4955478;28;20061;-68
2023/09/03 09:57:14;;;;;;;5.00;3.08;;;33.80;66.50;;;;;;4956717;28;20115;-69
2023/09/03 09:59:44;;;;;;;8.20;2.75;;;33.50;66.70;;;;;;4958554;28;20040;-69
2023/09/03 10:02:14;;;;;;;3.28;2.90;;;34.00;63.80;;;;;;4958316;28;20055;-69
2023/09/03 10:04:42;;;;;;;8.70;3.20;;;34.00;64.60;;;;;;4958875;28;20027;-70
2023/09/03 10:07:08;;;;;;;7.13;3.03;;;34.20;63.60;;;;;;4955511;28;20043;-68
2023/09/03 10:09:35;;;;;;;4.10;3.13;;;34.30;65.40;;;;;;4954335;28;20628;-68
2023/09/03 10:12:01;;;;;;;7.30;2.70;;;34.40;63.00;;;;;;4960226;28;20035;-69
2023/09/03 10:14:27;;;;;;;5.43;2.90;;;34.30;65.20;;;;;;4956402;28;20031;-69
2023/09/03 10:16:56;;;;;;;4.28;2.70;;;34.30;63.10;;;;;;4956904;28;20049;-69
2023/09/03 10:19:25;;;;;;;4.65;3.75;;;34.10;61.60;;;;;;4959568;28;20027;-68
2023/09/03 10:21:54;;;;;;;4.45;2.72;;;34.00;63.00;;;;;;4964141;28;20122;-70
2023/09/03 10:24:23;;;;;;;4.13;3.30;;;34.40;63.40;;;;;;4956294;28;20056;-68
2023/09/03 10:26:56;;;;;;;7.43;3.10;;;34.30;60.10;;;;;;4961514;28;20042;-68
2023/09/03 10:29:23;;;;;;;6.15;3.47;;;34.10;61.10;;;;;;4957080;28;20086;-68
2023/09/03 10:31:50;;;;;;;6.05;2.90;;;33.90;61.10;;;;;;4956887;28;20026;-66
2023/09/03 10:34:17;;;;;;;5.22;2.80;;;34.00;63.50;;;;;;4961695;28;20460;-67
2023/09/03 10:37:13;;;;;;;4.20;3.00;;;33.80;64.30;;;;;;4962917;28;20031;-66
2023/09/03 10:39:42;;;;;;;7.32;3.08;;;33.90;63.90;;;;;;4965762;28;20035;-67
2023/09/03 10:42:23;;;;;;;7.57;3.38;;;33.60;61.80;;;;;;4955709;28;20483;-66
2023/09/03 10:44:53;;;;;;;4.15;2.97;;;33.30;62.70;;;;;;4964289;28;20039;-67
2023/09/03 10:47:19;;;;;;;5.18;3.38;;;32.20;61.90;;;;;;4957419;28;20047;-66
2023/09/03 10:49:47;;;;;;;4.13;2.50;;;31.10;64.90;;;;;;4961611;28;20019;-67
2023/09/03 10:52:31;;;;;;;4.88;2.70;;;30.40;64.80;;;;;;4957691;28;20462;-66
2023/09/03 10:55:16;;;;;;;3.90;2.63;;;30.20;65.30;;;;;;4958063;28;20110;-69
2023/09/03 10:58:08;;;;;;;4.18;2.63;;;29.80;65.60;;;;;;4960959;28;20096;-67
2023/09/03 11:00:34;;;;;;;8.80;2.88;;;29.80;67.60;;;;;;4960591;28;20043;-68
2023/09/03 11:03:17;;;;;;;7.55;2.85;;;29.80;68.30;;;;;;4961831;28;20033;-67
2023/09/03 11:06:21;;;;;;;6.18;3.47;;;29.60;67.90;;;;;;4962254;28;20086;-67
2023/09/03 11:09:10;;;;;;;2.95;2.33;;;29.30;67.30;;;;;;4963296;28;20765;-68
2023/09/03 11:11:38;;;;;;;4.22;3.00;;;29.30;68.70;;;;;;4960545;28;20062;-67
2023/09/03 11:14:06;;;;;;;4.32;2.70;;;29.00;67.40;;;;;;4961327;28;20038;-67
2023/09/03 11:16:33;;;;;;;3.83;3.03;;;29.10;70.00;;;;;;4962731;28;20406;-67
2023/09/03 11:19:03;;;;;;;4.25;3.13;;;29.10;70.10;;;;;;4956064;28;20081;-67
2023/09/03 11:21:28;;;;;;;6.28;3.00;;;28.90;68.50;;;;;;4959122;28;20391;-67
2023/09/03 11:24:16;;;;;;;3.53;2.90;;;28.70;67.80;;;;;;4962850;28;20034;-67
2023/09/03 11:26:42;;;;;;;5.53;3.22;;;28.70;68.90;;;;;;4961938;28;20046;-67
2023/09/03 11:29:18;;;;;;;;;;;28.80;71.30;;;;;;4958343;28;20023;-68
2023/09/03 11:31:47;;;;;;;5.65;3.10;;;29.00;70.10;;;;;;4960682;28;20401;-67
2023/09/03 11:34:28;;;;;;;6.15;2.35;;;29.00;69.10;;;;;;4961567;28;20499;-66
2023/09/03 11:36:55;;;;;;;5.93;2.53;;;29.00;70.50;;;;;;4962092;28;20034;-67
2023/09/03 11:39:22;;;;;;;4.68;2.95;;;29.20;70.20;;;;;;4961081;28;20038;-66
2023/09/03 11:41:47;;;;;;;4.38;2.40;;;28.90;68.40;;;;;;4959150;28;20046;-67
2023/09/03 11:44:21;;;;;;;5.32;3.03;;;29.00;68.90;;;;;;4956501;28;20058;-67
2023/09/03 11:46:57;;;;;;;4.78;2.83;;;29.10;70.70;;;;;;4964406;28;20071;-67
2023/09/03 11:49:22;;;;;;;6.27;3.27;;;29.10;70.30;;;;;;4958609;28;20469;-66
2023/09/03 11:51:48;;;;;;;12.20;2.95;;;29.00;68.70;;;;;;4961352;28;20117;-67
2023/09/03 11:54:24;;;;;;;4.30;3.05;;;29.00;68.30;;;;;;4963137;28;20114;-67
2023/09/03 11:56:50;;;;;;;3.58;2.85;;;29.00;68.10;;;;;;4961388;28;20090;-67
2023/09/03 11:59:16;;;;;;;4.03;2.22;;;28.80;68.30;;;;;;4963487;28;20039;-68
2023/09/03 12:01:41;;;;;;;3.25;2.50;;;29.00;71.30;;;;;;4964078;28;20035;-67
2023/09/03 12:04:07;;;;;;;5.68;2.50;;;29.20;69.50;;;;;;4960974;28;20062;-67
2023/09/03 12:06:38;;;;;;;4.85;2.75;;;29.20;70.40;;;;;;4963975;28;20137;-68
2023/09/03 12:09:03;;;;;;;3.90;2.88;;;29.20;69.30;;;;;;4960444;28;20034;-67
2023/09/03 12:11:30;;;;;;;5.85;2.83;;;29.20;69.20;;;;;;4961251;28;20047;-67
2023/09/03 12:13:56;;;;;;;3.55;2.78;;;29.20;70.50;;;;;;4956857;28;20038;-67
2023/09/03 12:16:24;;;;;;;3.70;2.65;;;29.10;72.00;;;;;;4958760;28;20066;-67
2023/09/03 12:18:59;;;;;;;4.40;3.03;;;29.00;68.30;;;;;;4961922;28;20472;-67
2023/09/03 12:21:35;;;;;;;3.28;2.38;;;29.20;69.90;;;;;;4958695;28;20027;-67
2023/09/03 12:24:05;;;;;;;;;;;29.40;70.90;;;;;;4959829;28;20039;-67
2023/09/03 12:26:32;;;;;;;4.05;2.83;;;29.60;72.20;;;;;;4957267;28;19914;-67
2023/09/03 12:29:00;;;;;;;6.00;3.00;;;29.60;68.40;;;;;;4960797;28;20050;-68
2023/09/03 12:31:44;;;;;;;5.90;2.65;;;29.60;67.90;;;;;;4960552;28;20066;-67
2023/09/03 12:34:10;;;;;;;3.13;2.53;;;29.50;67.60;;;;;;4957741;28;20555;-67
2023/09/03 12:36:56;;;;;;;7.30;2.45;;;29.40;65.70;;;;;;4962044;28;20067;-67
2023/09/03 12:39:42;;;;;;;4.93;2.47;;;29.40;67.50;;;;;;4959367;28;20027;-67
2023/09/03 12:42:09;;;;;;;5.00;2.38;;;29.40;69.60;;;;;;4955477;28;20039;-67
2023/09/03 12:44:34;;;;;;;4.07;2.45;;;29.40;73.70;;;;;;4955673;28;20502;-66
2023/09/03 12:47:02;;;;;;;4.82;2.50;;;29.40;68.20;;;;;;4958556;28;20074;-67
2023/09/03 12:49:28;;;;;;;4.70;2.40;;;29.50;68.30;;;;;;4958970;28;20026;-67
2023/09/03 12:51:54;;;;;;;3.65;2.45;;;29.50;65.70;;;;;;4960980;28;20038;-67